createdAt,value
2023-05-14T00:03:07.555Z,4.47
2023-05-14T00:08:09.294Z,4.00
2023-05-14T00:13:10.818Z,5.15
2023-05-14T00:18:12.462Z,5.13
2023-05-14T00:23:14.016Z,3.95
2023-05-14T00:28:15.500Z,4.28
2023-05-14T00:33:16.996Z,4.93
2023-05-14T00:38:19.505Z,4.80
2023-05-14T00:48:22.775Z,4.70
2023-05-14T00:53:24.268Z,4.60
2023-05-14T00:58:26.294Z,4.03
2023-05-14T01:03:27.830Z,4.10
2023-05-14T01:08:53.968Z,4.57
2023-05-14T01:14:23.031Z,5.20
2023-05-14T01:19:41.214Z,4.45
2023-05-14T01:24:42.699Z,4.28
2023-05-14T01:29:55.506Z,5.07
2023-05-14T01:34:57.170Z,4.43
2023-05-14T01:39:58.849Z,4.88
2023-05-14T01:45:00.796Z,4.82
2023-05-14T01:50:02.297Z,5.65
2023-05-14T01:55:05.108Z,5.65
2023-05-14T02:00:07.481Z,5.15
2023-05-14T02:05:10.367Z,5.97
2023-05-14T02:10:11.895Z,5.50
2023-05-14T02:15:13.380Z,6.40
2023-05-14T02:20:14.934Z,6.40
2023-05-14T02:25:16.514Z,5.97
2023-05-14T02:30:18.050Z,6.07
2023-05-14T02:35:19.553Z,5.47
2023-05-14T02:40:21.162Z,6.13
2023-05-14T02:45:22.856Z,5.65
2023-05-14T02:50:24.638Z,5.65
2023-05-14T02:55:26.495Z,6.30
2023-05-14T03:00:27.995Z,6.25
2023-05-14T03:05:29.866Z,6.97
2023-05-14T03:10:32.876Z,7.38
2023-05-14T03:15:34.481Z,6.88
2023-05-14T03:20:35.962Z,7.45
2023-05-14T03:25:37.437Z,7.70
2023-05-14T03:30:39.015Z,7.20
2023-05-14T03:35:40.640Z,8.13
2023-05-14T03:40:42.130Z,8.73
2023-05-14T03:45:43.842Z,8.35
2023-05-14T03:50:45.625Z,9.02
2023-05-14T03:55:47.414Z,7.97
2023-05-14T04:00:48.993Z,7.63
2023-05-14T04:05:50.954Z,9.18
2023-05-14T04:10:52.444Z,9.52
2023-05-14T04:15:53.967Z,8.23
2023-05-14T04:20:55.667Z,7.97
2023-05-14T04:25:57.557Z,8.98
2023-05-14T04:30:59.043Z,8.82
2023-05-14T04:36:00.852Z,7.85
2023-05-14T04:41:02.345Z,8.20
2023-05-14T04:46:03.897Z,8.15
2023-05-14T04:51:07.112Z,8.43
2023-05-14T04:56:08.775Z,7.78
2023-05-14T05:01:10.577Z,9.02
2023-05-14T05:06:12.124Z,7.95
2023-05-14T05:11:13.633Z,8.15
2023-05-14T05:16:15.652Z,9.45
2023-05-14T05:21:17.244Z,8.57
2023-05-14T05:26:18.737Z,8.15
2023-05-14T05:31:20.305Z,8.18
2023-05-14T05:36:21.839Z,9.07
2023-05-14T05:41:23.356Z,10.35
2023-05-14T05:46:24.886Z,9.20
2023-05-14T05:51:26.414Z,9.60
2023-05-14T05:56:27.937Z,8.93
2023-05-14T06:01:29.526Z,8.40
2023-05-14T06:06:32.680Z,8.80
2023-05-14T06:11:34.180Z,10.20
2023-05-14T06:21:38.244Z,8.30
2023-05-14T06:26:39.741Z,8.50
2023-05-14T06:31:41.272Z,8.68
2023-05-14T06:36:42.802Z,8.93
2023-05-14T06:41:44.321Z,9.45
2023-05-14T06:46:45.818Z,9.32
2023-05-14T06:51:47.378Z,7.78
2023-05-14T06:56:48.926Z,8.23
2023-05-14T07:01:50.647Z,7.07
2023-05-14T07:06:52.238Z,8.43
2023-05-14T07:11:53.780Z,8.02
2023-05-14T07:16:55.399Z,8.60
2023-05-14T07:21:57.628Z,9.70
2023-05-14T07:26:59.139Z,7.72
2023-05-14T07:32:01.459Z,7.85
2023-05-14T07:37:02.986Z,7.80
2023-05-14T07:42:04.637Z,7.47
2023-05-14T07:47:07.458Z,6.80
2023-05-14T07:52:09.008Z,5.97
2023-05-14T07:57:10.497Z,4.70
2023-05-14T08:02:12.860Z,5.57
2023-05-14T08:07:14.450Z,7.50
2023-05-14T08:12:16.151Z,7.50
2023-05-14T08:17:18.042Z,8.00
2023-05-14T08:22:19.588Z,7.70
2023-05-14T08:27:21.560Z,8.23
2023-05-14T08:32:24.166Z,7.72
2023-05-14T08:37:25.887Z,7.20
2023-05-14T08:42:27.382Z,7.40
2023-05-14T08:47:30.239Z,8.07
2023-05-14T08:52:32.010Z,7.53
2023-05-14T08:57:33.799Z,7.88
2023-05-14T09:02:35.912Z,7.63
2023-05-14T09:07:37.478Z,7.88
2023-05-14T09:12:38.981Z,8.02
2023-05-14T09:17:40.562Z,7.20
2023-05-14T09:22:42.103Z,9.00
2023-05-14T09:27:43.800Z,7.75
2023-05-14T09:32:46.098Z,7.63
2023-05-14T09:37:49.422Z,8.10
2023-05-14T09:42:50.958Z,8.05
2023-05-14T09:47:53.313Z,7.15
2023-05-14T09:52:55.905Z,7.93
2023-05-14T09:57:57.411Z,8.80
2023-05-14T10:02:58.911Z,9.65
2023-05-14T10:08:00.593Z,9.23
2023-05-14T10:13:07.219Z,8.98
2023-05-14T10:18:13.067Z,8.27
2023-05-14T10:23:14.683Z,8.07
2023-05-14T10:28:16.207Z,8.18
2023-05-14T10:33:18.696Z,8.55
2023-05-14T10:38:23.240Z,7.95
2023-05-14T10:43:25.536Z,8.30
2023-05-14T10:48:27.064Z,7.57
2023-05-14T10:53:39.048Z,9.63
2023-05-14T10:58:42.390Z,9.38
2023-05-14T11:03:45.501Z,9.27
2023-05-14T11:08:47.189Z,8.60
2023-05-14T11:13:48.717Z,8.75
2023-05-14T11:18:54.084Z,9.45
2023-05-14T11:23:56.942Z,8.85
2023-05-14T11:28:58.492Z,10.32
2023-05-14T11:34:00.430Z,10.55
2023-05-14T11:39:01.921Z,10.10
2023-05-14T11:44:03.436Z,7.85
2023-05-14T11:49:05.309Z,9.23
2023-05-14T11:54:06.802Z,9.65
2023-05-14T11:59:08.339Z,9.32
2023-05-14T12:04:09.926Z,9.02
2023-05-14T12:09:12.571Z,9.10
2023-05-14T12:14:21.103Z,9.20
2023-05-14T12:19:23.447Z,10.50
2023-05-14T12:24:25.570Z,8.73
2023-05-14T12:29:27.069Z,9.88
2023-05-14T12:34:28.605Z,10.23
2023-05-14T12:39:31.950Z,11.90
2023-05-14T12:44:33.432Z,11.77
2023-05-14T12:49:34.914Z,8.82
2023-05-14T12:54:36.397Z,9.27
2023-05-14T12:59:38.278Z,10.68
2023-05-14T13:04:41.407Z,10.15
2023-05-14T13:09:42.937Z,7.90
2023-05-14T13:14:44.428Z,8.18
2023-05-14T13:19:45.923Z,8.48
2023-05-14T13:24:47.504Z,9.15
2023-05-14T13:29:49.005Z,9.32
2023-05-14T13:34:50.485Z,6.90
2023-05-14T13:39:51.991Z,5.65
2023-05-14T13:44:53.482Z,6.30
2023-05-14T13:49:55.027Z,7.35
2023-05-14T13:54:56.779Z,7.63
2023-05-14T13:59:58.353Z,4.38
2023-05-14T14:10:02.279Z,4.60
2023-05-14T14:15:05.578Z,3.40
2023-05-14T14:20:08.419Z,4.40
2023-05-14T14:25:11.077Z,4.30
2023-05-14T14:30:15.790Z,2.95
2023-05-14T14:35:18.035Z,3.13
2023-05-14T14:40:19.731Z,3.10
2023-05-14T14:45:21.436Z,3.00
2023-05-14T14:50:22.976Z,3.30
2023-05-14T14:55:24.750Z,4.75
2023-05-14T15:00:26.377Z,5.82
2023-05-14T15:05:28.306Z,5.13
2023-05-14T15:10:30.825Z,5.53
2023-05-14T15:15:33.071Z,5.50
2023-05-14T15:20:34.583Z,6.55
2023-05-14T15:25:36.145Z,6.55
2023-05-14T15:35:39.262Z,5.88
2023-05-14T15:40:40.963Z,8.05
2023-05-14T15:45:44.401Z,6.43
2023-05-14T15:50:49.539Z,7.93
2023-05-14T15:55:51.311Z,8.02
2023-05-14T16:00:52.909Z,10.00
2023-05-14T16:05:55.077Z,7.60
2023-05-14T16:10:56.562Z,8.30
2023-05-14T16:15:59.508Z,5.85
2023-05-14T16:21:01.893Z,7.57
2023-05-14T16:26:03.401Z,5.78
2023-05-14T16:31:04.945Z,5.20
2023-05-14T16:36:06.490Z,5.40
2023-05-14T16:41:09.410Z,10.95
2023-05-14T16:46:11.888Z,7.38
2023-05-14T16:51:13.472Z,6.93
2023-05-14T16:56:15.004Z,9.60
2023-05-14T17:01:16.528Z,10.95
2023-05-14T17:06:18.039Z,12.30
2023-05-14T17:11:20.623Z,11.80
2023-05-14T17:16:22.224Z,10.40
2023-05-14T17:21:23.766Z,11.73
2023-05-14T17:26:26.266Z,11.52
2023-05-14T17:31:27.819Z,10.45
2023-05-14T17:36:29.427Z,11.27
2023-05-14T17:41:30.955Z,11.95
2023-05-14T17:46:33.798Z,13.13
2023-05-14T17:51:35.467Z,12.48
2023-05-14T17:56:36.969Z,10.52
2023-05-14T18:01:38.532Z,14.38
2023-05-14T18:06:40.165Z,13.35
2023-05-14T18:11:41.657Z,13.30
2023-05-14T18:16:43.434Z,13.50
2023-05-14T18:21:48.058Z,12.20
2023-05-14T18:26:49.575Z,12.73
2023-05-14T18:31:51.103Z,12.85
2023-05-14T18:36:52.601Z,13.18
2023-05-14T18:41:55.057Z,13.20
2023-05-14T18:46:56.622Z,11.23
2023-05-14T18:51:58.103Z,10.90
2023-05-14T18:57:00.482Z,11.60
2023-05-14T19:02:02.031Z,8.70
2023-05-14T19:07:03.718Z,9.75
2023-05-14T19:12:05.427Z,9.95
2023-05-14T19:17:06.931Z,7.40
2023-05-14T19:22:08.425Z,10.88
2023-05-14T19:27:10.010Z,11.23
2023-05-14T19:32:11.508Z,9.32
2023-05-14T19:37:13.264Z,8.30
2023-05-14T19:42:14.823Z,9.73
2023-05-14T19:47:16.421Z,11.25
2023-05-14T19:52:17.942Z,12.00
2023-05-14T19:57:19.498Z,12.43
2023-05-14T20:02:21.909Z,10.77
2023-05-14T20:07:24.986Z,13.60
2023-05-14T20:12:27.713Z,14.18
2023-05-14T20:17:29.589Z,13.75
2023-05-14T20:22:31.172Z,13.65
2023-05-14T20:27:32.701Z,13.65
2023-05-14T20:32:34.313Z,13.80
2023-05-14T20:37:35.800Z,11.85
2023-05-14T20:42:37.290Z,11.27
2023-05-14T20:47:38.895Z,10.20
2023-05-14T20:52:40.756Z,10.90
2023-05-14T20:57:43.606Z,11.32
2023-05-14T21:02:45.404Z,12.63
2023-05-14T21:07:47.009Z,10.88
2023-05-14T21:12:48.523Z,12.43
2023-05-14T21:17:50.088Z,15.85
2023-05-14T21:22:51.655Z,12.20
2023-05-14T21:27:53.213Z,15.30
2023-05-14T21:32:54.827Z,14.20
2023-05-14T21:37:56.362Z,12.50
2023-05-14T21:42:57.874Z,15.65
2023-05-14T21:47:59.468Z,15.65
2023-05-14T21:53:01.022Z,15.68
2023-05-14T21:58:05.505Z,15.00
2023-05-14T22:03:07.044Z,14.85
2023-05-14T22:08:08.626Z,14.85
2023-05-14T22:13:10.940Z,14.13
2023-05-14T22:23:14.614Z,14.95
2023-05-14T22:28:16.163Z,14.85
2023-05-14T22:33:19.209Z,14.07
2023-05-14T22:38:20.873Z,14.75
2023-05-14T22:43:22.359Z,13.32
2023-05-14T22:48:23.928Z,17.02
2023-05-14T22:53:25.520Z,17.38
2023-05-14T22:58:27.053Z,13.20
2023-05-14T23:03:28.574Z,14.60
2023-05-14T23:08:30.113Z,17.42
2023-05-14T23:13:31.626Z,16.92
2023-05-14T23:18:33.311Z,14.27
2023-05-14T23:23:35.232Z,15.75
2023-05-14T23:28:36.709Z,14.68
2023-05-14T23:33:39.773Z,13.77
2023-05-14T23:38:41.351Z,15.20
2023-05-14T23:43:42.836Z,14.55
2023-05-14T23:48:44.330Z,14.38
2023-05-14T23:53:45.833Z,13.48
2023-05-14T23:58:47.371Z,11.80
